sensor_id;sensor_type;location;lat;lon;timestamp;P1;durP1;ratioP1;P2;durP2;ratioP2
1106;SDS011;540;49.448;8.612;2023-05-10T00:01:53;1.80;;;1.30;;
1106;SDS011;540;49.448;8.612;2023-05-10T00:04:21;2.72;;;1.92;;
1106;SDS011;540;49.448;8.612;2023-05-10T00:06:49;2.88;;;1.63;;
1106;SDS011;540;49.448;8.612;2023-05-10T00:09:16;2.20;;;1.27;;
1106;SDS011;540;49.448;8.612;2023-05-10T00:11:45;1.35;;;0.95;;
1106;SDS011;540;49.448;8.612;2023-05-10T00:14:13;1.42;;;1.10;;
1106;SDS011;540;49.448;8.612;2023-05-10T00:16:41;2.75;;;1.30;;
1106;SDS011;540;49.448;8.612;2023-05-10T00:19:09;1.75;;;1.45;;
1106;SDS011;540;49.448;8.612;2023-05-10T00:21:37;2.13;;;1.42;;
1106;SDS011;540;49.448;8.612;2023-05-10T00:24:05;2.45;;;1.05;;
1106;SDS011;540;49.448;8.612;2023-05-10T00:26:33;4.70;;;1.10;;
1106;SDS011;540;49.448;8.612;2023-05-10T00:29:02;2.53;;;1.00;;
1106;SDS011;540;49.448;8.612;2023-05-10T00:31:29;2.95;;;1.33;;
1106;SDS011;540;49.448;8.612;2023-05-10T00:33:57;1.75;;;1.33;;
1106;SDS011;540;49.448;8.612;2023-05-10T00:36:25;1.30;;;0.80;;
1106;SDS011;540;49.448;8.612;2023-05-10T00:38:53;1.73;;;1.02;;
1106;SDS011;540;49.448;8.612;2023-05-10T00:41:21;2.05;;;1.20;;
1106;SDS011;540;49.448;8.612;2023-05-10T00:43:49;4.30;;;0.90;;
1106;SDS011;540;49.448;8.612;2023-05-10T00:46:18;1.15;;;0.93;;
1106;SDS011;540;49.448;8.612;2023-05-10T00:48:46;2.63;;;1.10;;
1106;SDS011;540;49.448;8.612;2023-05-10T00:51:14;1.88;;;1.17;;
1106;SDS011;540;49.448;8.612;2023-05-10T00:53:41;1.63;;;1.02;;
1106;SDS011;540;49.448;8.612;2023-05-10T00:56:10;2.35;;;1.00;;
1106;SDS011;540;49.448;8.612;2023-05-10T00:58:39;1.48;;;1.05;;
1106;SDS011;540;49.448;8.612;2023-05-10T01:01:07;1.17;;;0.90;;
1106;SDS011;540;49.448;8.612;2023-05-10T01:03:38;1.25;;;0.95;;
1106;SDS011;540;49.448;8.612;2023-05-10T01:06:06;0.65;;;0.65;;
1106;SDS011;540;49.448;8.612;2023-05-10T01:08:35;1.33;;;0.90;;
1106;SDS011;540;49.448;8.612;2023-05-10T01:11:04;10.48;;;1.08;;
1106;SDS011;540;49.448;8.612;2023-05-10T01:13:32;1.30;;;0.85;;
1106;SDS011;540;49.448;8.612;2023-05-10T01:16:03;0.93;;;0.70;;
1106;SDS011;540;49.448;8.612;2023-05-10T01:18:33;1.20;;;0.88;;
1106;SDS011;540;49.448;8.612;2023-05-10T01:21:07;1.73;;;0.70;;
1106;SDS011;540;49.448;8.612;2023-05-10T01:23:59;1.05;;;0.82;;
1106;SDS011;540;49.448;8.612;2023-05-10T01:26:46;1.25;;;0.80;;
1106;SDS011;540;49.448;8.612;2023-05-10T01:29:46;0.70;;;0.70;;
1106;SDS011;540;49.448;8.612;2023-05-10T01:32:49;4.70;;;0.85;;
1106;SDS011;540;49.448;8.612;2023-05-10T01:35:30;0.70;;;0.60;;
1106;SDS011;540;49.448;8.612;2023-05-10T01:38:07;0.70;;;0.60;;
1106;SDS011;540;49.448;8.612;2023-05-10T01:40:42;2.08;;;0.85;;
1106;SDS011;540;49.448;8.612;2023-05-10T01:43:21;0.77;;;0.60;;
1106;SDS011;540;49.448;8.612;2023-05-10T01:45:57;3.47;;;0.75;;
1106;SDS011;540;49.448;8.612;2023-05-10T01:48:36;1.25;;;0.82;;
1106;SDS011;540;49.448;8.612;2023-05-10T01:51:07;0.73;;;0.70;;
1106;SDS011;540;49.448;8.612;2023-05-10T01:53:36;2.75;;;0.77;;
1106;SDS011;540;49.448;8.612;2023-05-10T01:56:06;0.75;;;0.75;;
1106;SDS011;540;49.448;8.612;2023-05-10T01:58:36;0.75;;;0.60;;
1106;SDS011;540;49.448;8.612;2023-05-10T02:01:09;0.88;;;0.70;;
1106;SDS011;540;49.448;8.612;2023-05-10T02:03:39;1.08;;;0.80;;
1106;SDS011;540;49.448;8.612;2023-05-10T02:06:10;0.88;;;0.73;;
1106;SDS011;540;49.448;8.612;2023-05-10T02:08:39;3.08;;;1.00;;
1106;SDS011;540;49.448;8.612;2023-05-10T02:11:08;1.98;;;1.13;;
1106;SDS011;540;49.448;8.612;2023-05-10T02:13:39;1.73;;;0.75;;
1106;SDS011;540;49.448;8.612;2023-05-10T02:16:09;2.20;;;0.85;;
1106;SDS011;540;49.448;8.612;2023-05-10T02:18:39;1.05;;;0.93;;
1106;SDS011;540;49.448;8.612;2023-05-10T02:21:08;1.30;;;0.80;;
1106;SDS011;540;49.448;8.612;2023-05-10T02:23:38;1.85;;;0.80;;
1106;SDS011;540;49.448;8.612;2023-05-10T02:26:06;2.47;;;0.80;;
1106;SDS011;540;49.448;8.612;2023-05-10T02:28:35;3.05;;;0.70;;
1106;SDS011;540;49.448;8.612;2023-05-10T02:31:04;1.70;;;0.90;;
1106;SDS011;540;49.448;8.612;2023-05-10T02:33:33;1.10;;;1.00;;
1106;SDS011;540;49.448;8.612;2023-05-10T02:36:03;1.20;;;1.10;;
1106;SDS011;540;49.448;8.612;2023-05-10T02:38:32;4.05;;;1.38;;
1106;SDS011;540;49.448;8.612;2023-05-10T02:41:01;1.58;;;1.00;;
1106;SDS011;540;49.448;8.612;2023-05-10T02:43:32;1.40;;;1.20;;
1106;SDS011;540;49.448;8.612;2023-05-10T02:46:00;2.45;;;0.90;;
1106;SDS011;540;49.448;8.612;2023-05-10T02:48:29;0.90;;;0.90;;
1106;SDS011;540;49.448;8.612;2023-05-10T02:50:59;1.80;;;1.10;;
1106;SDS011;540;49.448;8.612;2023-05-10T02:53:33;1.95;;;0.98;;
1106;SDS011;540;49.448;8.612;2023-05-10T02:56:04;3.15;;;1.13;;
1106;SDS011;540;49.448;8.612;2023-05-10T02:58:34;2.20;;;0.85;;
1106;SDS011;540;49.448;8.612;2023-05-10T03:01:02;1.83;;;1.38;;
1106;SDS011;540;49.448;8.612;2023-05-10T03:03:30;2.65;;;1.08;;
1106;SDS011;540;49.448;8.612;2023-05-10T03:05:58;1.65;;;1.20;;
1106;SDS011;540;49.448;8.612;2023-05-10T03:08:26;2.83;;;1.45;;
1106;SDS011;540;49.448;8.612;2023-05-10T03:10:58;1.75;;;1.20;;
1106;SDS011;540;49.448;8.612;2023-05-10T03:13:39;3.88;;;1.33;;
1106;SDS011;540;49.448;8.612;2023-05-10T03:16:14;4.80;;;1.33;;
1106;SDS011;540;49.448;8.612;2023-05-10T03:18:44;2.55;;;1.40;;
1106;SDS011;540;49.448;8.612;2023-05-10T03:21:17;1.80;;;1.10;;
1106;SDS011;540;49.448;8.612;2023-05-10T03:23:50;5.32;;;1.25;;
1106;SDS011;540;49.448;8.612;2023-05-10T03:26:27;1.20;;;1.10;;
1106;SDS011;540;49.448;8.612;2023-05-10T03:28:56;2.50;;;1.08;;
1106;SDS011;540;49.448;8.612;2023-05-10T03:31:25;3.25;;;1.63;;
1106;SDS011;540;49.448;8.612;2023-05-10T03:33:53;1.70;;;1.23;;
1106;SDS011;540;49.448;8.612;2023-05-10T03:36:21;1.02;;;0.93;;
1106;SDS011;540;49.448;8.612;2023-05-10T03:38:49;4.35;;;2.50;;
1106;SDS011;540;49.448;8.612;2023-05-10T03:41:17;2.03;;;1.60;;
1106;SDS011;540;49.448;8.612;2023-05-10T03:43:46;2.78;;;1.27;;
1106;SDS011;540;49.448;8.612;2023-05-10T03:46:14;1.67;;;1.20;;
1106;SDS011;540;49.448;8.612;2023-05-10T03:48:42;3.25;;;1.20;;
1106;SDS011;540;49.448;8.612;2023-05-10T03:51:09;1.25;;;1.05;;
1106;SDS011;540;49.448;8.612;2023-05-10T03:53:38;2.15;;;1.10;;
1106;SDS011;540;49.448;8.612;2023-05-10T03:56:06;2.10;;;1.27;;
1106;SDS011;540;49.448;8.612;2023-05-10T03:58:34;2.50;;;2.00;;
1106;SDS011;540;49.448;8.612;2023-05-10T04:01:03;1.52;;;1.23;;
1106;SDS011;540;49.448;8.612;2023-05-10T04:03:31;1.60;;;1.50;;
1106;SDS011;540;49.448;8.612;2023-05-10T04:05:59;2.35;;;1.67;;
1106;SDS011;540;49.448;8.612;2023-05-10T04:08:27;2.80;;;1.50;;
1106;SDS011;540;49.448;8.612;2023-05-10T04:11:04;2.60;;;1.60;;
1106;SDS011;540;49.448;8.612;2023-05-10T04:13:32;1.70;;;1.60;;
1106;SDS011;540;49.448;8.612;2023-05-10T04:16:00;1.65;;;1.40;;
1106;SDS011;540;49.448;8.612;2023-05-10T04:18:29;2.13;;;1.67;;
1106;SDS011;540;49.448;8.612;2023-05-10T04:20:57;3.20;;;1.80;;
1106;SDS011;540;49.448;8.612;2023-05-10T04:23:25;1.75;;;1.58;;
1106;SDS011;540;49.448;8.612;2023-05-10T04:25:58;3.50;;;2.10;;
1106;SDS011;540;49.448;8.612;2023-05-10T04:28:27;3.45;;;1.50;;
1106;SDS011;540;49.448;8.612;2023-05-10T04:31:00;2.10;;;1.90;;
1106;SDS011;540;49.448;8.612;2023-05-10T04:33:29;2.10;;;1.80;;
1106;SDS011;540;49.448;8.612;2023-05-10T04:35:57;5.07;;;2.40;;
1106;SDS011;540;49.448;8.612;2023-05-10T04:38:25;4.22;;;2.50;;
1106;SDS011;540;49.448;8.612;2023-05-10T04:40:53;5.20;;;1.85;;
1106;SDS011;540;49.448;8.612;2023-05-10T04:43:21;2.75;;;2.47;;
1106;SDS011;540;49.448;8.612;2023-05-10T04:45:48;3.63;;;2.25;;
1106;SDS011;540;49.448;8.612;2023-05-10T04:48:16;3.58;;;2.25;;
1106;SDS011;540;49.448;8.612;2023-05-10T04:50:46;5.32;;;2.45;;
1106;SDS011;540;49.448;8.612;2023-05-10T04:53:13;7.70;;;4.00;;
1106;SDS011;540;49.448;8.612;2023-05-10T04:55:41;3.00;;;2.70;;
1106;SDS011;540;49.448;8.612;2023-05-10T04:58:09;5.38;;;3.05;;
1106;SDS011;540;49.448;8.612;2023-05-10T05:00:37;3.67;;;2.90;;
1106;SDS011;540;49.448;8.612;2023-05-10T05:03:05;5.22;;;4.07;;
1106;SDS011;540;49.448;8.612;2023-05-10T05:05:33;4.78;;;3.58;;
1106;SDS011;540;49.448;8.612;2023-05-10T05:08:02;7.40;;;5.70;;
1106;SDS011;540;49.448;8.612;2023-05-10T05:10:30;7.20;;;3.80;;
1106;SDS011;540;49.448;8.612;2023-05-10T05:12:58;5.88;;;4.25;;
1106;SDS011;540;49.448;8.612;2023-05-10T05:15:26;4.20;;;3.63;;
1106;SDS011;540;49.448;8.612;2023-05-10T05:17:54;5.75;;;3.72;;
1106;SDS011;540;49.448;8.612;2023-05-10T05:20:22;5.20;;;3.55;;
1106;SDS011;540;49.448;8.612;2023-05-10T05:22:49;5.38;;;3.85;;
1106;SDS011;540;49.448;8.612;2023-05-10T05:25:18;5.90;;;3.92;;
1106;SDS011;540;49.448;8.612;2023-05-10T05:27:46;5.45;;;4.60;;
1106;SDS011;540;49.448;8.612;2023-05-10T05:30:14;5.20;;;4.10;;
1106;SDS011;540;49.448;8.612;2023-05-10T05:32:43;5.65;;;4.18;;
1106;SDS011;540;49.448;8.612;2023-05-10T05:35:11;5.38;;;4.03;;
1106;SDS011;540;49.448;8.612;2023-05-10T05:37:39;6.43;;;3.97;;
1106;SDS011;540;49.448;8.612;2023-05-10T05:40:07;5.50;;;3.72;;
1106;SDS011;540;49.448;8.612;2023-05-10T05:42:37;5.65;;;3.72;;
1106;SDS011;540;49.448;8.612;2023-05-10T05:45:05;4.70;;;3.78;;
1106;SDS011;540;49.448;8.612;2023-05-10T05:47:34;8.07;;;4.18;;
1106;SDS011;540;49.448;8.612;2023-05-10T05:50:02;4.75;;;3.63;;
1106;SDS011;540;49.448;8.612;2023-05-10T05:52:31;3.58;;;3.22;;
1106;SDS011;540;49.448;8.612;2023-05-10T05:54:58;5.63;;;4.65;;
1106;SDS011;540;49.448;8.612;2023-05-10T05:57:26;5.63;;;4.20;;
1106;SDS011;540;49.448;8.612;2023-05-10T05:59:55;5.47;;;4.20;;
1106;SDS011;540;49.448;8.612;2023-05-10T06:02:23;4.63;;;3.72;;
1106;SDS011;540;49.448;8.612;2023-05-10T06:04:51;4.15;;;3.38;;
1106;SDS011;540;49.448;8.612;2023-05-10T06:07:19;4.07;;;3.40;;
1106;SDS011;540;49.448;8.612;2023-05-10T06:09:47;6.43;;;3.70;;
1106;SDS011;540;49.448;8.612;2023-05-10T06:12:15;6.85;;;4.00;;
1106;SDS011;540;49.448;8.612;2023-05-10T06:14:43;5.13;;;3.33;;
1106;SDS011;540;49.448;8.612;2023-05-10T06:17:12;5.82;;;4.10;;
1106;SDS011;540;49.448;8.612;2023-05-10T06:19:40;4.78;;;3.80;;
1106;SDS011;540;49.448;8.612;2023-05-10T06:22:08;3.92;;;3.50;;
1106;SDS011;540;49.448;8.612;2023-05-10T06:24:35;4.97;;;4.32;;
1106;SDS011;540;49.448;8.612;2023-05-10T06:27:03;5.70;;;4.05;;
1106;SDS011;540;49.448;8.612;2023-05-10T06:29:31;6.07;;;3.97;;
1106;SDS011;540;49.448;8.612;2023-05-10T06:31:59;6.55;;;4.43;;
1106;SDS011;540;49.448;8.612;2023-05-10T06:34:28;4.28;;;3.63;;
1106;SDS011;540;49.448;8.612;2023-05-10T06:36:56;5.25;;;4.05;;
1106;SDS011;540;49.448;8.612;2023-05-10T06:39:24;5.60;;;3.88;;
1106;SDS011;540;49.448;8.612;2023-05-10T06:41:52;8.32;;;4.45;;
1106;SDS011;540;49.448;8.612;2023-05-10T06:44:20;6.35;;;3.72;;
1106;SDS011;540;49.448;8.612;2023-05-10T06:46:48;9.20;;;4.38;;
1106;SDS011;540;49.448;8.612;2023-05-10T06:49:16;6.47;;;4.20;;
1106;SDS011;540;49.448;8.612;2023-05-10T06:51:45;5.03;;;4.00;;
1106;SDS011;540;49.448;8.612;2023-05-10T06:54:13;7.60;;;3.85;;
1106;SDS011;540;49.448;8.612;2023-05-10T06:56:40;4.60;;;3.85;;
1106;SDS011;540;49.448;8.612;2023-05-10T06:59:08;5.78;;;4.03;;
1106;SDS011;540;49.448;8.612;2023-05-10T07:01:36;7.47;;;4.80;;
1106;SDS011;540;49.448;8.612;2023-05-10T07:04:04;7.57;;;4.10;;
1106;SDS011;540;49.448;8.612;2023-05-10T07:06:33;5.00;;;4.43;;
1106;SDS011;540;49.448;8.612;2023-05-10T07:09:03;4.60;;;3.80;;
1106;SDS011;540;49.448;8.612;2023-05-10T07:11:31;8.48;;;4.05;;
1106;SDS011;540;49.448;8.612;2023-05-10T07:13:59;3.88;;;3.42;;
1106;SDS011;540;49.448;8.612;2023-05-10T07:16:26;4.55;;;3.80;;
1106;SDS011;540;49.448;8.612;2023-05-10T07:18:54;4.93;;;3.78;;
1106;SDS011;540;49.448;8.612;2023-05-10T07:21:22;7.28;;;4.15;;
1106;SDS011;540;49.448;8.612;2023-05-10T07:23:51;3.83;;;3.42;;
1106;SDS011;540;49.448;8.612;2023-05-10T07:26:20;5.75;;;4.32;;
1106;SDS011;540;49.448;8.612;2023-05-10T07:28:48;3.95;;;3.38;;
1106;SDS011;540;49.448;8.612;2023-05-10T07:31:15;12.77;;;5.00;;
1106;SDS011;540;49.448;8.612;2023-05-10T07:33:43;3.95;;;2.80;;
1106;SDS011;540;49.448;8.612;2023-05-10T07:36:11;4.93;;;2.88;;
1106;SDS011;540;49.448;8.612;2023-05-10T07:38:39;6.00;;;3.67;;
1106;SDS011;540;49.448;8.612;2023-05-10T07:41:07;3.15;;;2.40;;
1106;SDS011;540;49.448;8.612;2023-05-10T07:43:36;4.20;;;2.15;;
1106;SDS011;540;49.448;8.612;2023-05-10T07:46:04;3.95;;;2.60;;
1106;SDS011;540;49.448;8.612;2023-05-10T07:48:32;6.00;;;2.30;;
1106;SDS011;540;49.448;8.612;2023-05-10T07:51:00;3.95;;;2.40;;
1106;SDS011;540;49.448;8.612;2023-05-10T07:53:28;3.85;;;2.15;;
1106;SDS011;540;49.448;8.612;2023-05-10T07:55:56;4.70;;;1.52;;
1106;SDS011;540;49.448;8.612;2023-05-10T07:58:25;3.42;;;2.20;;
1106;SDS011;540;49.448;8.612;2023-05-10T08:00:55;1.60;;;1.50;;
1106;SDS011;540;49.448;8.612;2023-05-10T08:03:25;4.28;;;2.08;;
1106;SDS011;540;49.448;8.612;2023-05-10T08:05:54;2.20;;;1.90;;
1106;SDS011;540;49.448;8.612;2023-05-10T08:08:25;3.22;;;1.63;;
1106;SDS011;540;49.448;8.612;2023-05-10T08:10:55;1.70;;;1.50;;
1106;SDS011;540;49.448;8.612;2023-05-10T08:13:24;2.97;;;1.25;;
1106;SDS011;540;49.448;8.612;2023-05-10T08:15:56;2.63;;;1.20;;
1106;SDS011;540;49.448;8.612;2023-05-10T08:18:26;1.33;;;1.02;;
1106;SDS011;540;49.448;8.612;2023-05-10T08:20:56;1.40;;;1.20;;
1106;SDS011;540;49.448;8.612;2023-05-10T08:23:26;4.85;;;1.52;;
1106;SDS011;540;49.448;8.612;2023-05-10T08:25:56;6.20;;;1.10;;
1106;SDS011;540;49.448;8.612;2023-05-10T08:28:25;1.80;;;1.20;;
1106;SDS011;540;49.448;8.612;2023-05-10T08:30:57;1.35;;;1.10;;
1106;SDS011;540;49.448;8.612;2023-05-10T08:33:27;1.58;;;1.00;;
1106;SDS011;540;49.448;8.612;2023-05-10T08:35:56;1.55;;;1.13;;
1106;SDS011;540;49.448;8.612;2023-05-10T08:38:26;2.90;;;1.38;;
1106;SDS011;540;49.448;8.612;2023-05-10T08:40:56;1.70;;;1.20;;
1106;SDS011;540;49.448;8.612;2023-05-10T08:43:28;1.25;;;1.10;;
1106;SDS011;540;49.448;8.612;2023-05-10T08:46:00;4.07;;;1.20;;
1106;SDS011;540;49.448;8.612;2023-05-10T08:48:31;1.80;;;1.20;;
1106;SDS011;540;49.448;8.612;2023-05-10T08:51:03;2.22;;;1.08;;
1106;SDS011;540;49.448;8.612;2023-05-10T08:53:35;1.90;;;1.30;;
1106;SDS011;540;49.448;8.612;2023-05-10T08:56:07;9.20;;;5.85;;
1106;SDS011;540;49.448;8.612;2023-05-10T08:58:37;2.83;;;1.23;;
1106;SDS011;540;49.448;8.612;2023-05-10T09:01:07;2.25;;;1.00;;
1106;SDS011;540;49.448;8.612;2023-05-10T09:03:36;2.08;;;0.93;;
1106;SDS011;540;49.448;8.612;2023-05-10T09:06:05;1.15;;;1.02;;
1106;SDS011;540;49.448;8.612;2023-05-10T09:08:34;3.65;;;1.02;;
1106;SDS011;540;49.448;8.612;2023-05-10T09:11:03;2.13;;;1.73;;
1106;SDS011;540;49.448;8.612;2023-05-10T09:13:32;3.00;;;1.23;;
1106;SDS011;540;49.448;8.612;2023-05-10T09:16:00;2.60;;;1.55;;
1106;SDS011;540;49.448;8.612;2023-05-10T09:18:47;1.70;;;0.88;;
1106;SDS011;540;49.448;8.612;2023-05-10T09:21:16;0.90;;;0.70;;
1106;SDS011;540;49.448;8.612;2023-05-10T09:23:44;1.67;;;1.00;;
1106;SDS011;540;49.448;8.612;2023-05-10T09:26:14;3.00;;;1.00;;
1106;SDS011;540;49.448;8.612;2023-05-10T09:28:51;3.20;;;1.60;;
1106;SDS011;540;49.448;8.612;2023-05-10T09:31:19;1.17;;;1.08;;
1106;SDS011;540;49.448;8.612;2023-05-10T09:33:49;1.52;;;1.13;;
1106;SDS011;540;49.448;8.612;2023-05-10T09:36:17;1.50;;;1.00;;
1106;SDS011;540;49.448;8.612;2023-05-10T09:38:45;1.08;;;0.80;;
1106;SDS011;540;49.448;8.612;2023-05-10T09:41:15;1.52;;;0.80;;
1106;SDS011;540;49.448;8.612;2023-05-10T09:43:44;2.10;;;0.70;;
1106;SDS011;540;49.448;8.612;2023-05-10T09:46:12;3.05;;;1.00;;
1106;SDS011;540;49.448;8.612;2023-05-10T09:48:41;2.20;;;1.10;;
1106;SDS011;540;49.448;8.612;2023-05-10T09:51:14;1.27;;;1.02;;
1106;SDS011;540;49.448;8.612;2023-05-10T09:53:46;1.10;;;0.80;;
1106;SDS011;540;49.448;8.612;2023-05-10T09:59:03;1.10;;;0.90;;
1106;SDS011;540;49.448;8.612;2023-05-10T10:01:32;1.50;;;0.90;;
1106;SDS011;540;49.448;8.612;2023-05-10T10:04:02;1.65;;;1.05;;
1106;SDS011;540;49.448;8.612;2023-05-10T10:06:36;2.55;;;0.90;;
1106;SDS011;540;49.448;8.612;2023-05-10T10:09:05;1.23;;;0.95;;
1106;SDS011;540;49.448;8.612;2023-05-10T10:11:34;2.05;;;0.90;;
1106;SDS011;540;49.448;8.612;2023-05-10T10:14:02;2.42;;;0.93;;
1106;SDS011;540;49.448;8.612;2023-05-10T10:16:30;1.00;;;0.90;;
1106;SDS011;540;49.448;8.612;2023-05-10T10:18:59;1.48;;;1.10;;
1106;SDS011;540;49.448;8.612;2023-05-10T10:21:27;2.08;;;0.90;;
1106;SDS011;540;49.448;8.612;2023-05-10T10:23:57;1.15;;;1.02;;
1106;SDS011;540;49.448;8.612;2023-05-10T10:26:24;3.42;;;2.05;;
1106;SDS011;540;49.448;8.612;2023-05-10T10:28:56;2.17;;;1.10;;
1106;SDS011;540;49.448;8.612;2023-05-10T10:31:36;1.88;;;0.90;;
1106;SDS011;540;49.448;8.612;2023-05-10T10:34:08;2.45;;;0.90;;
1106;SDS011;540;49.448;8.612;2023-05-10T10:36:40;3.15;;;0.70;;
1106;SDS011;540;49.448;8.612;2023-05-10T10:39:11;1.25;;;0.80;;
1106;SDS011;540;49.448;8.612;2023-05-10T10:41:39;1.85;;;0.90;;
1106;SDS011;540;49.448;8.612;2023-05-10T10:44:36;2.00;;;0.82;;
1106;SDS011;540;49.448;8.612;2023-05-10T10:47:06;3.58;;;0.90;;
1106;SDS011;540;49.448;8.612;2023-05-10T10:50:04;1.65;;;0.85;;
1106;SDS011;540;49.448;8.612;2023-05-10T10:52:33;0.80;;;0.80;;
1106;SDS011;540;49.448;8.612;2023-05-10T10:55:05;3.25;;;1.20;;
1106;SDS011;540;49.448;8.612;2023-05-10T10:57:42;2.72;;;1.08;;
1106;SDS011;540;49.448;8.612;2023-05-10T11:00:22;1.67;;;0.80;;
1106;SDS011;540;49.448;8.612;2023-05-10T11:02:52;1.48;;;0.80;;
1106;SDS011;540;49.448;8.612;2023-05-10T11:05:34;1.00;;;0.90;;
1106;SDS011;540;49.448;8.612;2023-05-10T11:08:07;3.38;;;0.85;;
1106;SDS011;540;49.448;8.612;2023-05-10T11:10:38;0.93;;;0.82;;
1106;SDS011;540;49.448;8.612;2023-05-10T11:13:07;2.13;;;0.82;;
1106;SDS011;540;49.448;8.612;2023-05-10T11:15:36;0.80;;;0.80;;
1106;SDS011;540;49.448;8.612;2023-05-10T11:18:17;2.60;;;0.95;;
1106;SDS011;540;49.448;8.612;2023-05-10T11:20:49;3.53;;;1.27;;
1106;SDS011;540;49.448;8.612;2023-05-10T11:23:18;1.27;;;0.65;;
1106;SDS011;540;49.448;8.612;2023-05-10T11:25:49;2.63;;;1.23;;
1106;SDS011;540;49.448;8.612;2023-05-10T11:28:17;1.63;;;0.88;;
1106;SDS011;540;49.448;8.612;2023-05-10T11:30:46;2.15;;;0.50;;
1106;SDS011;540;49.448;8.612;2023-05-10T11:33:17;0.95;;;0.45;;
1106;SDS011;540;49.448;8.612;2023-05-10T11:35:45;1.58;;;0.70;;
1106;SDS011;540;49.448;8.612;2023-05-10T11:38:13;2.90;;;0.70;;
1106;SDS011;540;49.448;8.612;2023-05-10T11:40:42;3.20;;;1.45;;
1106;SDS011;540;49.448;8.612;2023-05-10T11:43:11;0.70;;;0.50;;
1106;SDS011;540;49.448;8.612;2023-05-10T11:45:40;1.58;;;0.50;;
1106;SDS011;540;49.448;8.612;2023-05-10T11:48:08;0.80;;;0.60;;
1106;SDS011;540;49.448;8.612;2023-05-10T11:50:36;2.33;;;0.98;;
1106;SDS011;540;49.448;8.612;2023-05-10T11:53:04;0.93;;;0.68;;
1106;SDS011;540;49.448;8.612;2023-05-10T11:55:33;3.55;;;1.88;;
1106;SDS011;540;49.448;8.612;2023-05-10T11:58:01;1.63;;;0.70;;
1106;SDS011;540;49.448;8.612;2023-05-10T12:00:31;21.10;;;1.85;;
1106;SDS011;540;49.448;8.612;2023-05-10T12:03:00;1.30;;;0.70;;
1106;SDS011;540;49.448;8.612;2023-05-10T12:05:28;1.52;;;0.60;;
1106;SDS011;540;49.448;8.612;2023-05-10T12:08:12;2.83;;;0.90;;
1106;SDS011;540;49.448;8.612;2023-05-10T12:10:40;1.20;;;0.57;;
1106;SDS011;540;49.448;8.612;2023-05-10T12:13:11;1.00;;;0.68;;
1106;SDS011;540;49.448;8.612;2023-05-10T12:15:42;1.90;;;0.50;;
1106;SDS011;540;49.448;8.612;2023-05-10T12:18:11;0.57;;;0.57;;
1106;SDS011;540;49.448;8.612;2023-05-10T12:20:39;0.80;;;0.60;;
1106;SDS011;540;49.448;8.612;2023-05-10T12:23:08;1.73;;;0.50;;
1106;SDS011;540;49.448;8.612;2023-05-10T12:25:37;3.60;;;0.70;;
1106;SDS011;540;49.448;8.612;2023-05-10T12:28:06;2.33;;;0.88;;
1106;SDS011;540;49.448;8.612;2023-05-10T12:30:35;4.65;;;1.13;;
1106;SDS011;540;49.448;8.612;2023-05-10T12:33:08;2.05;;;0.90;;
1106;SDS011;540;49.448;8.612;2023-05-10T12:35:43;4.55;;;0.88;;
1106;SDS011;540;49.448;8.612;2023-05-10T12:38:28;3.13;;;0.93;;
1106;SDS011;540;49.448;8.612;2023-05-10T12:40:57;2.50;;;0.95;;
1106;SDS011;540;49.448;8.612;2023-05-10T12:43:26;4.05;;;0.90;;
1106;SDS011;540;49.448;8.612;2023-05-10T12:45:54;2.55;;;0.70;;
1106;SDS011;540;49.448;8.612;2023-05-10T12:48:23;3.70;;;0.95;;
1106;SDS011;540;49.448;8.612;2023-05-10T12:50:51;2.35;;;0.70;;
1106;SDS011;540;49.448;8.612;2023-05-10T12:53:19;2.13;;;1.13;;
1106;SDS011;540;49.448;8.612;2023-05-10T12:55:47;2.22;;;1.00;;
1106;SDS011;540;49.448;8.612;2023-05-10T12:58:15;1.05;;;0.65;;
1106;SDS011;540;49.448;8.612;2023-05-10T13:00:59;1.45;;;0.70;;
1106;SDS011;540;49.448;8.612;2023-05-10T13:03:29;6.57;;;1.10;;
1106;SDS011;540;49.448;8.612;2023-05-10T13:05:57;2.67;;;0.90;;
1106;SDS011;540;49.448;8.612;2023-05-10T13:08:25;3.90;;;0.73;;
1106;SDS011;540;49.448;8.612;2023-05-10T13:10:53;4.88;;;1.92;;
1106;SDS011;540;49.448;8.612;2023-05-10T13:13:21;5.28;;;1.05;;
1106;SDS011;540;49.448;8.612;2023-05-10T13:15:49;2.20;;;0.90;;
1106;SDS011;540;49.448;8.612;2023-05-10T13:18:17;4.28;;;0.70;;
1106;SDS011;540;49.448;8.612;2023-05-10T13:20:46;5.50;;;0.50;;
1106;SDS011;540;49.448;8.612;2023-05-10T13:23:15;2.25;;;0.50;;
1106;SDS011;540;49.448;8.612;2023-05-10T13:25:43;3.10;;;0.75;;
1106;SDS011;540;49.448;8.612;2023-05-10T13:28:11;2.30;;;0.82;;
1106;SDS011;540;49.448;8.612;2023-05-10T13:30:39;1.85;;;0.50;;
1106;SDS011;540;49.448;8.612;2023-05-10T13:33:06;1.02;;;0.82;;
1106;SDS011;540;49.448;8.612;2023-05-10T13:35:34;1.38;;;0.57;;
1106;SDS011;540;49.448;8.612;2023-05-10T13:38:04;1.35;;;0.82;;
1106;SDS011;540;49.448;8.612;2023-05-10T13:40:33;1.08;;;0.73;;
1106;SDS011;540;49.448;8.612;2023-05-10T13:43:02;7.75;;;0.90;;
1106;SDS011;540;49.448;8.612;2023-05-10T13:45:29;3.15;;;0.60;;
1106;SDS011;540;49.448;8.612;2023-05-10T13:47:57;3.22;;;0.65;;
1106;SDS011;540;49.448;8.612;2023-05-10T13:50:25;4.35;;;0.75;;
1106;SDS011;540;49.448;8.612;2023-05-10T13:52:53;1.45;;;0.70;;
1106;SDS011;540;49.448;8.612;2023-05-10T13:55:22;1.33;;;0.40;;
1106;SDS011;540;49.448;8.612;2023-05-10T13:57:50;1.25;;;0.52;;
1106;SDS011;540;49.448;8.612;2023-05-10T14:00:18;1.52;;;0.60;;
1106;SDS011;540;49.448;8.612;2023-05-10T14:02:46;1.83;;;0.70;;
1106;SDS011;540;49.448;8.612;2023-05-10T14:05:14;3.40;;;0.57;;
1106;SDS011;540;49.448;8.612;2023-05-10T14:07:45;0.80;;;0.70;;
1106;SDS011;540;49.448;8.612;2023-05-10T14:10:12;5.28;;;0.70;;
1106;SDS011;540;49.448;8.612;2023-05-10T14:12:42;1.55;;;0.77;;
1106;SDS011;540;49.448;8.612;2023-05-10T14:15:10;1.42;;;0.68;;
1106;SDS011;540;49.448;8.612;2023-05-10T14:17:38;1.60;;;1.00;;
1106;SDS011;540;49.448;8.612;2023-05-10T14:20:06;5.38;;;0.50;;
1106;SDS011;540;49.448;8.612;2023-05-10T14:22:35;1.45;;;0.45;;
1106;SDS011;540;49.448;8.612;2023-05-10T14:25:02;3.53;;;0.60;;
1106;SDS011;540;49.448;8.612;2023-05-10T14:27:31;2.92;;;0.75;;
1106;SDS011;540;49.448;8.612;2023-05-10T14:30:00;1.10;;;0.70;;
1106;SDS011;540;49.448;8.612;2023-05-10T14:32:28;2.25;;;0.65;;
1106;SDS011;540;49.448;8.612;2023-05-10T14:34:58;2.00;;;0.45;;
1106;SDS011;540;49.448;8.612;2023-05-10T14:37:25;1.23;;;0.50;;
1106;SDS011;540;49.448;8.612;2023-05-10T14:39:53;1.13;;;0.55;;
1106;SDS011;540;49.448;8.612;2023-05-10T14:42:21;1.02;;;0.70;;
1106;SDS011;540;49.448;8.612;2023-05-10T14:44:49;2.17;;;0.50;;
1106;SDS011;540;49.448;8.612;2023-05-10T14:47:18;2.03;;;0.70;;
1106;SDS011;540;49.448;8.612;2023-05-10T14:49:46;4.93;;;0.70;;
1106;SDS011;540;49.448;8.612;2023-05-10T14:52:14;2.15;;;0.40;;
1106;SDS011;540;49.448;8.612;2023-05-10T14:54:42;0.52;;;0.38;;
1106;SDS011;540;49.448;8.612;2023-05-10T14:57:10;1.55;;;0.70;;
1106;SDS011;540;49.448;8.612;2023-05-10T14:59:38;2.75;;;1.20;;
1106;SDS011;540;49.448;8.612;2023-05-10T15:02:06;1.20;;;0.50;;
1106;SDS011;540;49.448;8.612;2023-05-10T15:04:38;2.38;;;0.30;;
1106;SDS011;540;49.448;8.612;2023-05-10T15:07:06;0.85;;;0.38;;
1106;SDS011;540;49.448;8.612;2023-05-10T15:09:34;1.73;;;0.60;;
1106;SDS011;540;49.448;8.612;2023-05-10T15:12:02;1.25;;;0.50;;
1106;SDS011;540;49.448;8.612;2023-05-10T15:14:29;0.98;;;0.43;;
1106;SDS011;540;49.448;8.612;2023-05-10T15:16:57;3.67;;;0.50;;
1106;SDS011;540;49.448;8.612;2023-05-10T15:19:25;2.30;;;0.70;;
1106;SDS011;540;49.448;8.612;2023-05-10T15:21:54;2.70;;;0.40;;
1106;SDS011;540;49.448;8.612;2023-05-10T15:24:22;1.48;;;0.52;;
1106;SDS011;540;49.448;8.612;2023-05-10T15:26:49;0.50;;;0.47;;
1106;SDS011;540;49.448;8.612;2023-05-10T15:29:17;2.50;;;0.70;;
1106;SDS011;540;49.448;8.612;2023-05-10T15:31:46;1.10;;;0.50;;
1106;SDS011;540;49.448;8.612;2023-05-10T15:34:15;1.23;;;0.55;;
1106;SDS011;540;49.448;8.612;2023-05-10T15:36:43;1.10;;;0.50;;
1106;SDS011;540;49.448;8.612;2023-05-10T15:39:13;1.90;;;0.52;;
1106;SDS011;540;49.448;8.612;2023-05-10T15:41:40;0.90;;;0.50;;
1106;SDS011;540;49.448;8.612;2023-05-10T15:44:08;3.15;;;0.90;;
1106;SDS011;540;49.448;8.612;2023-05-10T15:46:37;0.40;;;0.30;;
1106;SDS011;540;49.448;8.612;2023-05-10T15:49:05;1.20;;;0.47;;